sensor_id;sensor_type;location;lat;lon;timestamp;pressure;altitude;pressure_sealevel;temperature
16956;BMP180;8594;52.052;8.354;2023-03-01T00:00:19;102060.00;;;4.80
16956;BMP180;8594;52.052;8.354;2023-03-01T00:02:46;102053.00;;;4.90
16956;BMP180;8594;52.052;8.354;2023-03-01T00:05:12;102052.00;;;4.90
16956;BMP180;8594;52.052;8.354;2023-03-01T00:07:41;102046.00;;;4.40
16956;BMP180;8594;52.052;8.354;2023-03-01T00:10:10;102041.00;;;4.70
16956;BMP180;8594;52.052;8.354;2023-03-01T00:12:37;102048.00;;;4.60
16956;BMP180;8594;52.052;8.354;2023-03-01T00:15:04;102048.00;;;4.10
16956;BMP180;8594;52.052;8.354;2023-03-01T00:17:31;102051.00;;;4.40
16956;BMP180;8594;52.052;8.354;2023-03-01T00:19:58;102049.00;;;4.70
16956;BMP180;8594;52.052;8.354;2023-03-01T00:22:27;102054.00;;;4.50
16956;BMP180;8594;52.052;8.354;2023-03-01T00:24:56;102048.00;;;4.50
16956;BMP180;8594;52.052;8.354;2023-03-01T00:27:22;102047.00;;;4.60
16956;BMP180;8594;52.052;8.354;2023-03-01T00:29:49;102048.00;;;4.50
16956;BMP180;8594;52.052;8.354;2023-03-01T00:32:16;102053.00;;;4.50
16956;BMP180;8594;52.052;8.354;2023-03-01T00:34:43;102058.00;;;4.40
16956;BMP180;8594;52.052;8.354;2023-03-01T00:37:19;102050.00;;;4.40
16956;BMP180;8594;52.052;8.354;2023-03-01T00:39:46;102045.00;;;4.40
16956;BMP180;8594;52.052;8.354;2023-03-01T00:42:15;102058.00;;;4.50
16956;BMP180;8594;52.052;8.354;2023-03-01T00:44:42;102056.00;;;4.40
16956;BMP180;8594;52.052;8.354;2023-03-01T00:47:09;102056.00;;;4.50
16956;BMP180;8594;52.052;8.354;2023-03-01T00:49:35;102060.00;;;4.40
16956;BMP180;8594;52.052;8.354;2023-03-01T00:52:02;102061.00;;;4.40
16956;BMP180;8594;52.052;8.354;2023-03-01T00:54:29;102051.00;;;4.40
16956;BMP180;8594;52.052;8.354;2023-03-01T00:56:56;102048.00;;;4.40
16956;BMP180;8594;52.052;8.354;2023-03-01T00:59:24;102041.00;;;4.30
16956;BMP180;8594;52.052;8.354;2023-03-01T01:01:51;102047.00;;;4.30
16956;BMP180;8594;52.052;8.354;2023-03-01T01:04:18;102047.00;;;4.40
16956;BMP180;8594;52.052;8.354;2023-03-01T01:06:46;102044.00;;;4.20
16956;BMP180;8594;52.052;8.354;2023-03-01T01:09:15;102045.00;;;4.20
16956;BMP180;8594;52.052;8.354;2023-03-01T01:11:44;102046.00;;;4.20
16956;BMP180;8594;52.052;8.354;2023-03-01T01:14:12;102042.00;;;4.00
16956;BMP180;8594;52.052;8.354;2023-03-01T01:16:40;102037.00;;;4.20
16956;BMP180;8594;52.052;8.354;2023-03-01T01:19:07;102038.00;;;4.10
16956;BMP180;8594;52.052;8.354;2023-03-01T01:21:34;102040.00;;;4.10
16956;BMP180;8594;52.052;8.354;2023-03-01T01:24:03;102036.00;;;4.10
16956;BMP180;8594;52.052;8.354;2023-03-01T01:26:32;102022.00;;;4.10
16956;BMP180;8594;52.052;8.354;2023-03-01T01:29:01;102016.00;;;4.10
16956;BMP180;8594;52.052;8.354;2023-03-01T01:31:30;102022.00;;;4.10
16956;BMP180;8594;52.052;8.354;2023-03-01T01:33:59;102018.00;;;4.10
16956;BMP180;8594;52.052;8.354;2023-03-01T01:36:27;102015.00;;;4.00
16956;BMP180;8594;52.052;8.354;2023-03-01T01:38:54;102011.00;;;4.00
16956;BMP180;8594;52.052;8.354;2023-03-01T01:41:23;102008.00;;;4.10
16956;BMP180;8594;52.052;8.354;2023-03-01T01:44:15;102011.00;;;4.10
16956;BMP180;8594;52.052;8.354;2023-03-01T01:46:44;102010.00;;;4.20
16956;BMP180;8594;52.052;8.354;2023-03-01T01:49:23;102007.00;;;4.10
16956;BMP180;8594;52.052;8.354;2023-03-01T01:51:59;102005.00;;;4.00
16956;BMP180;8594;52.052;8.354;2023-03-01T01:54:37;102005.00;;;4.00
16956;BMP180;8594;52.052;8.354;2023-03-01T01:57:11;101999.00;;;4.10
16956;BMP180;8594;52.052;8.354;2023-03-01T01:59:45;101990.00;;;4.10
16956;BMP180;8594;52.052;8.354;2023-03-01T02:02:15;102000.00;;;3.90
16956;BMP180;8594;52.052;8.354;2023-03-01T02:04:44;102000.00;;;4.00
16956;BMP180;8594;52.052;8.354;2023-03-01T02:07:16;102003.00;;;4.00
16956;BMP180;8594;52.052;8.354;2023-03-01T02:09:47;101997.00;;;3.90
16956;BMP180;8594;52.052;8.354;2023-03-01T02:12:16;101995.00;;;3.90
16956;BMP180;8594;52.052;8.354;2023-03-01T02:14:44;101993.00;;;3.90
16956;BMP180;8594;52.052;8.354;2023-03-01T02:17:12;101997.00;;;3.90
16956;BMP180;8594;52.052;8.354;2023-03-01T02:20:00;101991.00;;;3.90
16956;BMP180;8594;52.052;8.354;2023-03-01T02:22:34;101982.00;;;3.80
16956;BMP180;8594;52.052;8.354;2023-03-01T02:25:22;101989.00;;;3.80
16956;BMP180;8594;52.052;8.354;2023-03-01T02:27:58;101987.00;;;3.90
16956;BMP180;8594;52.052;8.354;2023-03-01T02:30:30;101982.00;;;3.90
16956;BMP180;8594;52.052;8.354;2023-03-01T02:33:00;101987.00;;;3.90
16956;BMP180;8594;52.052;8.354;2023-03-01T02:35:32;101997.00;;;3.60
16956;BMP180;8594;52.052;8.354;2023-03-01T02:38:01;101987.00;;;3.60
16956;BMP180;8594;52.052;8.354;2023-03-01T02:40:30;101991.00;;;3.60
16956;BMP180;8594;52.052;8.354;2023-03-01T02:42:58;101990.00;;;3.70
16956;BMP180;8594;52.052;8.354;2023-03-01T02:45:27;101983.00;;;3.40
16956;BMP180;8594;52.052;8.354;2023-03-01T02:47:54;101982.00;;;3.30
16956;BMP180;8594;52.052;8.354;2023-03-01T02:50:55;101982.00;;;3.30
16956;BMP180;8594;52.052;8.354;2023-03-01T02:53:36;101975.00;;;3.50
16956;BMP180;8594;52.052;8.354;2023-03-01T02:56:05;101988.00;;;3.30
16956;BMP180;8594;52.052;8.354;2023-03-01T02:58:38;101982.00;;;3.50
16956;BMP180;8594;52.052;8.354;2023-03-01T03:01:12;101975.00;;;3.40
16956;BMP180;8594;52.052;8.354;2023-03-01T03:03:41;101983.00;;;3.30
16956;BMP180;8594;52.052;8.354;2023-03-01T03:06:08;101979.00;;;3.10
16956;BMP180;8594;52.052;8.354;2023-03-01T03:08:35;101970.00;;;3.30
16956;BMP180;8594;52.052;8.354;2023-03-01T03:11:03;101967.00;;;3.30
16956;BMP180;8594;52.052;8.354;2023-03-01T03:13:30;101962.00;;;3.40
16956;BMP180;8594;52.052;8.354;2023-03-01T03:15:57;101952.00;;;3.20
16956;BMP180;8594;52.052;8.354;2023-03-01T03:18:26;101964.00;;;3.30
16956;BMP180;8594;52.052;8.354;2023-03-01T03:20:54;101955.00;;;3.50
16956;BMP180;8594;52.052;8.354;2023-03-01T03:23:21;101959.00;;;3.40
16956;BMP180;8594;52.052;8.354;2023-03-01T03:25:50;101953.00;;;3.30
16956;BMP180;8594;52.052;8.354;2023-03-01T03:28:18;101953.00;;;3.40
16956;BMP180;8594;52.052;8.354;2023-03-01T03:30:45;101944.00;;;3.40
16956;BMP180;8594;52.052;8.354;2023-03-01T03:33:12;101941.00;;;3.50
16956;BMP180;8594;52.052;8.354;2023-03-01T03:35:44;101942.00;;;3.40
16956;BMP180;8594;52.052;8.354;2023-03-01T03:38:14;101946.00;;;3.60
16956;BMP180;8594;52.052;8.354;2023-03-01T03:40:45;101945.00;;;3.40
16956;BMP180;8594;52.052;8.354;2023-03-01T03:43:15;101941.00;;;3.50
16956;BMP180;8594;52.052;8.354;2023-03-01T03:45:45;101936.00;;;3.30
16956;BMP180;8594;52.052;8.354;2023-03-01T03:48:12;101937.00;;;3.50
16956;BMP180;8594;52.052;8.354;2023-03-01T03:50:41;101940.00;;;3.40
16956;BMP180;8594;52.052;8.354;2023-03-01T03:53:11;101930.00;;;3.30
16956;BMP180;8594;52.052;8.354;2023-03-01T03:55:39;101937.00;;;3.40
16956;BMP180;8594;52.052;8.354;2023-03-01T03:58:10;101928.00;;;3.50
16956;BMP180;8594;52.052;8.354;2023-03-01T04:00:40;101930.00;;;3.60
16956;BMP180;8594;52.052;8.354;2023-03-01T04:03:08;101933.00;;;3.60
16956;BMP180;8594;52.052;8.354;2023-03-01T04:05:36;101929.00;;;3.30
16956;BMP180;8594;52.052;8.354;2023-03-01T04:08:05;101920.00;;;3.50
16956;BMP180;8594;52.052;8.354;2023-03-01T04:10:36;101915.00;;;3.30
16956;BMP180;8594;52.052;8.354;2023-03-01T04:13:03;101921.00;;;3.50
16956;BMP180;8594;52.052;8.354;2023-03-01T04:15:32;101923.00;;;3.40
16956;BMP180;8594;52.052;8.354;2023-03-01T04:17:59;101918.00;;;3.50
16956;BMP180;8594;52.052;8.354;2023-03-01T04:20:30;101914.00;;;3.50
16956;BMP180;8594;52.052;8.354;2023-03-01T04:23:04;101922.00;;;3.50
16956;BMP180;8594;52.052;8.354;2023-03-01T04:25:39;101913.00;;;3.70
16956;BMP180;8594;52.052;8.354;2023-03-01T04:28:07;101917.00;;;3.60
16956;BMP180;8594;52.052;8.354;2023-03-01T04:30:35;101924.00;;;3.60
16956;BMP180;8594;52.052;8.354;2023-03-01T04:33:04;101911.00;;;3.60
16956;BMP180;8594;52.052;8.354;2023-03-01T04:35:31;101923.00;;;3.60
16956;BMP180;8594;52.052;8.354;2023-03-01T04:38:00;101922.00;;;3.30
16956;BMP180;8594;52.052;8.354;2023-03-01T04:40:27;101919.00;;;3.30
16956;BMP180;8594;52.052;8.354;2023-03-01T04:42:55;101922.00;;;3.10
16956;BMP180;8594;52.052;8.354;2023-03-01T04:45:22;101918.00;;;3.20
16956;BMP180;8594;52.052;8.354;2023-03-01T04:47:49;101921.00;;;3.20
16956;BMP180;8594;52.052;8.354;2023-03-01T04:50:19;101914.00;;;3.00
16956;BMP180;8594;52.052;8.354;2023-03-01T04:52:47;101914.00;;;3.10
16956;BMP180;8594;52.052;8.354;2023-03-01T04:55:15;101915.00;;;3.10
16956;BMP180;8594;52.052;8.354;2023-03-01T04:57:42;101917.00;;;3.00
16956;BMP180;8594;52.052;8.354;2023-03-01T05:00:14;101913.00;;;2.80
16956;BMP180;8594;52.052;8.354;2023-03-01T05:02:50;101923.00;;;2.60
16956;BMP180;8594;52.052;8.354;2023-03-01T05:05:20;101918.00;;;2.60
16956;BMP180;8594;52.052;8.354;2023-03-01T05:07:55;101912.00;;;2.60
16956;BMP180;8594;52.052;8.354;2023-03-01T05:10:23;101912.00;;;2.50
16956;BMP180;8594;52.052;8.354;2023-03-01T05:12:50;101923.00;;;2.40
16956;BMP180;8594;52.052;8.354;2023-03-01T05:15:20;101910.00;;;2.40
16956;BMP180;8594;52.052;8.354;2023-03-01T05:17:51;101917.00;;;2.50
16956;BMP180;8594;52.052;8.354;2023-03-01T05:20:18;101917.00;;;2.40
16956;BMP180;8594;52.052;8.354;2023-03-01T05:22:48;101905.00;;;2.50
16956;BMP180;8594;52.052;8.354;2023-03-01T05:25:15;101901.00;;;2.60
16956;BMP180;8594;52.052;8.354;2023-03-01T05:27:42;101908.00;;;2.50
16956;BMP180;8594;52.052;8.354;2023-03-01T05:30:10;101897.00;;;2.40
16956;BMP180;8594;52.052;8.354;2023-03-01T05:32:44;101904.00;;;2.40
16956;BMP180;8594;52.052;8.354;2023-03-01T05:35:11;101904.00;;;2.10
16956;BMP180;8594;52.052;8.354;2023-03-01T05:37:41;101904.00;;;2.30
16956;BMP180;8594;52.052;8.354;2023-03-01T05:40:11;101905.00;;;2.40
16956;BMP180;8594;52.052;8.354;2023-03-01T05:42:45;101913.00;;;2.60
16956;BMP180;8594;52.052;8.354;2023-03-01T05:45:13;101909.00;;;2.50
16956;BMP180;8594;52.052;8.354;2023-03-01T05:47:45;101901.00;;;2.50
16956;BMP180;8594;52.052;8.354;2023-03-01T05:50:15;101910.00;;;2.70
16956;BMP180;8594;52.052;8.354;2023-03-01T05:52:46;101912.00;;;2.70
16956;BMP180;8594;52.052;8.354;2023-03-01T05:55:14;101916.00;;;2.30
16956;BMP180;8594;52.052;8.354;2023-03-01T05:57:41;101907.00;;;2.40
16956;BMP180;8594;52.052;8.354;2023-03-01T06:00:10;101911.00;;;2.30
16956;BMP180;8594;52.052;8.354;2023-03-01T06:02:37;101907.00;;;2.40
16956;BMP180;8594;52.052;8.354;2023-03-01T06:05:08;101910.00;;;2.30
16956;BMP180;8594;52.052;8.354;2023-03-01T06:07:35;101900.00;;;2.40
16956;BMP180;8594;52.052;8.354;2023-03-01T06:10:05;101901.00;;;2.20
16956;BMP180;8594;52.052;8.354;2023-03-01T06:12:32;101904.00;;;2.20
16956;BMP180;8594;52.052;8.354;2023-03-01T06:15:00;101906.00;;;2.20
16956;BMP180;8594;52.052;8.354;2023-03-01T06:17:30;101907.00;;;2.10
16956;BMP180;8594;52.052;8.354;2023-03-01T06:19:57;101909.00;;;2.10
16956;BMP180;8594;52.052;8.354;2023-03-01T06:22:26;101917.00;;;2.30
16956;BMP180;8594;52.052;8.354;2023-03-01T06:24:53;101915.00;;;2.20
16956;BMP180;8594;52.052;8.354;2023-03-01T06:27:20;101917.00;;;2.50
16956;BMP180;8594;52.052;8.354;2023-03-01T06:29:47;101925.00;;;2.40
16956;BMP180;8594;52.052;8.354;2023-03-01T06:32:14;101917.00;;;2.40
16956;BMP180;8594;52.052;8.354;2023-03-01T06:34:41;101904.00;;;2.30
16956;BMP180;8594;52.052;8.354;2023-03-01T06:37:08;101910.00;;;2.00
16956;BMP180;8594;52.052;8.354;2023-03-01T06:39:36;101920.00;;;2.20
16956;BMP180;8594;52.052;8.354;2023-03-01T06:42:04;101916.00;;;2.20
16956;BMP180;8594;52.052;8.354;2023-03-01T06:44:31;101910.00;;;2.00
16956;BMP180;8594;52.052;8.354;2023-03-01T06:46:58;101915.00;;;2.20
16956;BMP180;8594;52.052;8.354;2023-03-01T06:49:25;101915.00;;;2.10
16956;BMP180;8594;52.052;8.354;2023-03-01T06:51:52;101906.00;;;2.00
16956;BMP180;8594;52.052;8.354;2023-03-01T06:54:19;101906.00;;;2.10
16956;BMP180;8594;52.052;8.354;2023-03-01T06:56:49;101905.00;;;2.10
16956;BMP180;8594;52.052;8.354;2023-03-01T06:59:17;101900.00;;;1.90
16956;BMP180;8594;52.052;8.354;2023-03-01T07:01:44;101908.00;;;2.00
16956;BMP180;8594;52.052;8.354;2023-03-01T07:04:12;101904.00;;;2.20
16956;BMP180;8594;52.052;8.354;2023-03-01T07:06:39;101901.00;;;2.30
16956;BMP180;8594;52.052;8.354;2023-03-01T07:09:06;101896.00;;;2.20
16956;BMP180;8594;52.052;8.354;2023-03-01T07:11:33;101893.00;;;2.20
16956;BMP180;8594;52.052;8.354;2023-03-01T07:14:02;101900.00;;;2.40
16956;BMP180;8594;52.052;8.354;2023-03-01T07:16:28;101892.00;;;2.40
16956;BMP180;8594;52.052;8.354;2023-03-01T07:18:55;101894.00;;;2.40
16956;BMP180;8594;52.052;8.354;2023-03-01T07:21:22;101902.00;;;2.30
16956;BMP180;8594;52.052;8.354;2023-03-01T07:23:49;101891.00;;;2.50
16956;BMP180;8594;52.052;8.354;2023-03-01T07:26:15;101899.00;;;2.60
16956;BMP180;8594;52.052;8.354;2023-03-01T07:28:42;101886.00;;;2.80
16956;BMP180;8594;52.052;8.354;2023-03-01T07:31:10;101876.00;;;2.60
16956;BMP180;8594;52.052;8.354;2023-03-01T07:33:37;101874.00;;;3.20
16956;BMP180;8594;52.052;8.354;2023-03-01T07:36:06;101854.00;;;3.90
16956;BMP180;8594;52.052;8.354;2023-03-01T07:38:33;101864.00;;;4.40
16956;BMP180;8594;52.052;8.354;2023-03-01T07:41:02;101860.00;;;5.20
16956;BMP180;8594;52.052;8.354;2023-03-01T07:43:30;101869.00;;;5.60
16956;BMP180;8594;52.052;8.354;2023-03-01T07:45:59;101878.00;;;6.50
16956;BMP180;8594;52.052;8.354;2023-03-01T07:48:27;101878.00;;;6.70
16956;BMP180;8594;52.052;8.354;2023-03-01T07:50:58;101876.00;;;6.80
16956;BMP180;8594;52.052;8.354;2023-03-01T07:53:26;101876.00;;;6.90
16956;BMP180;8594;52.052;8.354;2023-03-01T07:56:01;101878.00;;;7.30
16956;BMP180;8594;52.052;8.354;2023-03-01T07:58:28;101879.00;;;7.60
16956;BMP180;8594;52.052;8.354;2023-03-01T08:00:55;101879.00;;;7.90
16956;BMP180;8594;52.052;8.354;2023-03-01T08:03:21;101880.00;;;8.00
16956;BMP180;8594;52.052;8.354;2023-03-01T08:05:50;101886.00;;;8.40
16956;BMP180;8594;52.052;8.354;2023-03-01T08:08:20;101883.00;;;7.80
16956;BMP180;8594;52.052;8.354;2023-03-01T08:10:47;101885.00;;;8.30
16956;BMP180;8594;52.052;8.354;2023-03-01T08:13:17;101881.00;;;7.80
16956;BMP180;8594;52.052;8.354;2023-03-01T08:15:48;101883.00;;;8.60
16956;BMP180;8594;52.052;8.354;2023-03-01T08:18:15;101882.00;;;8.60
16956;BMP180;8594;52.052;8.354;2023-03-01T08:20:41;101883.00;;;8.90
16956;BMP180;8594;52.052;8.354;2023-03-01T08:23:10;101882.00;;;9.20
16956;BMP180;8594;52.052;8.354;2023-03-01T08:25:37;101883.00;;;9.00
16956;BMP180;8594;52.052;8.354;2023-03-01T08:28:04;101874.00;;;8.90
16956;BMP180;8594;52.052;8.354;2023-03-01T08:30:32;101880.00;;;9.10
16956;BMP180;8594;52.052;8.354;2023-03-01T08:32:58;101874.00;;;9.40
16956;BMP180;8594;52.052;8.354;2023-03-01T08:35:25;101872.00;;;9.60
16956;BMP180;8594;52.052;8.354;2023-03-01T08:37:52;101870.00;;;9.50
16956;BMP180;8594;52.052;8.354;2023-03-01T08:40:20;101862.00;;;9.70
16956;BMP180;8594;52.052;8.354;2023-03-01T08:42:47;101874.00;;;10.00
16956;BMP180;8594;52.052;8.354;2023-03-01T08:45:14;101863.00;;;10.10
16956;BMP180;8594;52.052;8.354;2023-03-01T08:47:43;101864.00;;;10.40
16956;BMP180;8594;52.052;8.354;2023-03-01T08:50:11;101873.00;;;10.50
16956;BMP180;8594;52.052;8.354;2023-03-01T08:52:38;101881.00;;;10.50
16956;BMP180;8594;52.052;8.354;2023-03-01T08:55:07;101880.00;;;10.50
16956;BMP180;8594;52.052;8.354;2023-03-01T08:57:35;101875.00;;;10.80
16956;BMP180;8594;52.052;8.354;2023-03-01T09:00:03;101877.00;;;11.50
16956;BMP180;8594;52.052;8.354;2023-03-01T09:02:34;101881.00;;;11.10
16956;BMP180;8594;52.052;8.354;2023-03-01T09:05:00;101880.00;;;10.90
16956;BMP180;8594;52.052;8.354;2023-03-01T09:07:27;101874.00;;;11.50
16956;BMP180;8594;52.052;8.354;2023-03-01T09:09:54;101880.00;;;10.80
16956;BMP180;8594;52.052;8.354;2023-03-01T09:12:22;101877.00;;;11.30
16956;BMP180;8594;52.052;8.354;2023-03-01T09:14:51;101864.00;;;10.40
16956;BMP180;8594;52.052;8.354;2023-03-01T09:17:18;101871.00;;;11.00
16956;BMP180;8594;52.052;8.354;2023-03-01T09:19:47;101863.00;;;10.90
16956;BMP180;8594;52.052;8.354;2023-03-01T09:22:14;101870.00;;;11.20
16956;BMP180;8594;52.052;8.354;2023-03-01T09:24:40;101865.00;;;10.50
16956;BMP180;8594;52.052;8.354;2023-03-01T09:27:07;101862.00;;;11.00
16956;BMP180;8594;52.052;8.354;2023-03-01T09:29:35;101858.00;;;11.20
16956;BMP180;8594;52.052;8.354;2023-03-01T09:32:03;101860.00;;;11.10
16956;BMP180;8594;52.052;8.354;2023-03-01T09:34:30;101860.00;;;12.00
16956;BMP180;8594;52.052;8.354;2023-03-01T09:37:17;101852.00;;;11.90
16956;BMP180;8594;52.052;8.354;2023-03-01T09:39:44;101848.00;;;11.80
16956;BMP180;8594;52.052;8.354;2023-03-01T09:42:12;101850.00;;;11.30
16956;BMP180;8594;52.052;8.354;2023-03-01T09:44:48;101848.00;;;11.40
16956;BMP180;8594;52.052;8.354;2023-03-01T09:47:20;101850.00;;;11.60
16956;BMP180;8594;52.052;8.354;2023-03-01T09:50:01;101846.00;;;11.40
16956;BMP180;8594;52.052;8.354;2023-03-01T09:52:36;101839.00;;;11.50
16956;BMP180;8594;52.052;8.354;2023-03-01T09:55:11;101846.00;;;11.40
16956;BMP180;8594;52.052;8.354;2023-03-01T09:57:47;101840.00;;;10.90
16956;BMP180;8594;52.052;8.354;2023-03-01T10:00:30;101838.00;;;10.20
16956;BMP180;8594;52.052;8.354;2023-03-01T10:03:14;101850.00;;;11.00
16956;BMP180;8594;52.052;8.354;2023-03-01T10:05:56;101838.00;;;10.90
16956;BMP180;8594;52.052;8.354;2023-03-01T10:08:46;101844.00;;;11.40
16956;BMP180;8594;52.052;8.354;2023-03-01T10:11:21;101844.00;;;11.10
16956;BMP180;8594;52.052;8.354;2023-03-01T10:14:01;101848.00;;;11.00
16956;BMP180;8594;52.052;8.354;2023-03-01T10:16:40;101843.00;;;11.40
16956;BMP180;8594;52.052;8.354;2023-03-01T10:19:14;101841.00;;;12.00
16956;BMP180;8594;52.052;8.354;2023-03-01T10:21:45;101844.00;;;11.40
16956;BMP180;8594;52.052;8.354;2023-03-01T10:24:16;101832.00;;;11.20
16956;BMP180;8594;52.052;8.354;2023-03-01T10:26:53;101824.00;;;11.50
16956;BMP180;8594;52.052;8.354;2023-03-01T10:29:28;101840.00;;;11.40
16956;BMP180;8594;52.052;8.354;2023-03-01T10:31:56;101837.00;;;11.10
16956;BMP180;8594;52.052;8.354;2023-03-01T10:34:34;101836.00;;;11.30
16956;BMP180;8594;52.052;8.354;2023-03-01T10:37:11;101828.00;;;11.50
16956;BMP180;8594;52.052;8.354;2023-03-01T10:39:56;101835.00;;;11.00
16956;BMP180;8594;52.052;8.354;2023-03-01T10:42:28;101827.00;;;11.10
16956;BMP180;8594;52.052;8.354;2023-03-01T10:44:57;101836.00;;;11.10
16956;BMP180;8594;52.052;8.354;2023-03-01T10:47:26;101821.00;;;10.80
16956;BMP180;8594;52.052;8.354;2023-03-01T10:50:04;101832.00;;;11.10
16956;BMP180;8594;52.052;8.354;2023-03-01T10:52:58;101829.00;;;11.00
16956;BMP180;8594;52.052;8.354;2023-03-01T10:55:31;101825.00;;;11.70
16956;BMP180;8594;52.052;8.354;2023-03-01T10:58:19;101824.00;;;11.50
16956;BMP180;8594;52.052;8.354;2023-03-01T11:00:50;101816.00;;;11.20
16956;BMP180;8594;52.052;8.354;2023-03-01T11:03:22;101822.00;;;11.00
16956;BMP180;8594;52.052;8.354;2023-03-01T11:06:04;101813.00;;;11.00
16956;BMP180;8594;52.052;8.354;2023-03-01T11:08:39;101810.00;;;10.30
16956;BMP180;8594;52.052;8.354;2023-03-01T11:11:24;101815.00;;;10.20
16956;BMP180;8594;52.052;8.354;2023-03-01T11:13:56;101812.00;;;9.90
16956;BMP180;8594;52.052;8.354;2023-03-01T11:16:35;101807.00;;;9.60
16956;BMP180;8594;52.052;8.354;2023-03-01T11:19:21;101812.00;;;9.80
16956;BMP180;8594;52.052;8.354;2023-03-01T11:21:58;101804.00;;;10.10
16956;BMP180;8594;52.052;8.354;2023-03-01T11:24:34;101814.00;;;10.20
16956;BMP180;8594;52.052;8.354;2023-03-01T11:27:13;101815.00;;;10.20
16956;BMP180;8594;52.052;8.354;2023-03-01T11:29:45;101808.00;;;10.10
16956;BMP180;8594;52.052;8.354;2023-03-01T11:32:19;101809.00;;;9.80
16956;BMP180;8594;52.052;8.354;2023-03-01T11:34:54;101802.00;;;10.50
16956;BMP180;8594;52.052;8.354;2023-03-01T11:37:34;101818.00;;;10.10
16956;BMP180;8594;52.052;8.354;2023-03-01T11:40:13;101798.00;;;10.10
16956;BMP180;8594;52.052;8.354;2023-03-01T11:42:52;101804.00;;;10.00
16956;BMP180;8594;52.052;8.354;2023-03-01T11:45:26;101802.00;;;10.30
16956;BMP180;8594;52.052;8.354;2023-03-01T11:48:17;101791.00;;;10.20
16956;BMP180;8594;52.052;8.354;2023-03-01T11:50:50;101789.00;;;9.80
16956;BMP180;8594;52.052;8.354;2023-03-01T11:53:39;101799.00;;;9.90
16956;BMP180;8594;52.052;8.354;2023-03-01T11:56:24;101789.00;;;9.60
16956;BMP180;8594;52.052;8.354;2023-03-01T11:59:38;101792.00;;;9.50
16956;BMP180;8594;52.052;8.354;2023-03-01T12:02:46;101780.00;;;9.20
16956;BMP180;8594;52.052;8.354;2023-03-01T12:08:36;101769.00;;;10.10
16956;BMP180;8594;52.052;8.354;2023-03-01T12:11:19;101759.00;;;9.60
16956;BMP180;8594;52.052;8.354;2023-03-01T12:14:08;101766.00;;;9.70
16956;BMP180;8594;52.052;8.354;2023-03-01T12:17:12;101759.00;;;9.70
16956;BMP180;8594;52.052;8.354;2023-03-01T12:23:02;101749.00;;;9.80
16956;BMP180;8594;52.052;8.354;2023-03-01T12:25:41;101747.00;;;10.00
16956;BMP180;8594;52.052;8.354;2023-03-01T12:28:31;101735.00;;;9.30
16956;BMP180;8594;52.052;8.354;2023-03-01T12:34:50;101733.00;;;9.90
16956;BMP180;8594;52.052;8.354;2023-03-01T12:37:31;101714.00;;;10.00
16956;BMP180;8594;52.052;8.354;2023-03-01T12:40:32;101734.00;;;9.90
16956;BMP180;8594;52.052;8.354;2023-03-01T12:43:19;101712.00;;;10.40
16956;BMP180;8594;52.052;8.354;2023-03-01T12:46:04;101707.00;;;9.90
16956;BMP180;8594;52.052;8.354;2023-03-01T12:48:47;101711.00;;;9.60
16956;BMP180;8594;52.052;8.354;2023-03-01T12:51:22;101700.00;;;9.60
16956;BMP180;8594;52.052;8.354;2023-03-01T12:53:53;101708.00;;;9.10
16956;BMP180;8594;52.052;8.354;2023-03-01T12:56:23;101699.00;;;9.70
16956;BMP180;8594;52.052;8.354;2023-03-01T12:59:02;101701.00;;;9.50
16956;BMP180;8594;52.052;8.354;2023-03-01T13:01:46;101696.00;;;9.00
16956;BMP180;8594;52.052;8.354;2023-03-01T13:04:35;101700.00;;;9.50
16956;BMP180;8594;52.052;8.354;2023-03-01T13:07:23;101702.00;;;9.40
16956;BMP180;8594;52.052;8.354;2023-03-01T13:10:11;101688.00;;;9.40
16956;BMP180;8594;52.052;8.354;2023-03-01T13:12:52;101683.00;;;9.30
16956;BMP180;8594;52.052;8.354;2023-03-01T13:15:33;101688.00;;;9.10
16956;BMP180;8594;52.052;8.354;2023-03-01T13:18:03;101681.00;;;8.70
16956;BMP180;8594;52.052;8.354;2023-03-01T13:20:34;101682.00;;;9.60
16956;BMP180;8594;52.052;8.354;2023-03-01T13:23:27;101690.00;;;9.90
16956;BMP180;8594;52.052;8.354;2023-03-01T13:26:09;101676.00;;;9.90
16956;BMP180;8594;52.052;8.354;2023-03-01T13:32:01;101675.00;;;10.00
16956;BMP180;8594;52.052;8.354;2023-03-01T13:34:46;101674.00;;;10.70
16956;BMP180;8594;52.052;8.354;2023-03-01T13:37:34;101668.00;;;10.90
16956;BMP180;8594;52.052;8.354;2023-03-01T13:43:31;101668.00;;;10.60
16956;BMP180;8594;52.052;8.354;2023-03-01T13:45:59;101667.00;;;10.10
16956;BMP180;8594;52.052;8.354;2023-03-01T13:48:30;101664.00;;;10.60
16956;BMP180;8594;52.052;8.354;2023-03-01T13:51:00;101656.00;;;10.60
16956;BMP180;8594;52.052;8.354;2023-03-01T13:53:33;101654.00;;;10.60
16956;BMP180;8594;52.052;8.354;2023-03-01T13:56:08;101659.00;;;10.10
16956;BMP180;8594;52.052;8.354;2023-03-01T13:58:49;101651.00;;;9.70
16956;BMP180;8594;52.052;8.354;2023-03-01T14:01:29;101656.00;;;9.90
16956;BMP180;8594;52.052;8.354;2023-03-01T14:04:00;101655.00;;;9.90
16956;BMP180;8594;52.052;8.354;2023-03-01T14:06:29;101647.00;;;9.50
16956;BMP180;8594;52.052;8.354;2023-03-01T14:09:05;101643.00;;;9.50
16956;BMP180;8594;52.052;8.354;2023-03-01T14:14:46;101642.00;;;10.30
16956;BMP180;8594;52.052;8.354;2023-03-01T14:17:41;101636.00;;;9.50
16956;BMP180;8594;52.052;8.354;2023-03-01T14:20:18;101636.00;;;9.50
16956;BMP180;8594;52.052;8.354;2023-03-01T14:22:47;101635.00;;;9.50
16956;BMP180;8594;52.052;8.354;2023-03-01T14:25:23;101635.00;;;9.20
16956;BMP180;8594;52.052;8.354;2023-03-01T14:27:57;101631.00;;;9.30
16956;BMP180;8594;52.052;8.354;2023-03-01T14:30:31;101634.00;;;9.30
16956;BMP180;8594;52.052;8.354;2023-03-01T14:33:02;101621.00;;;9.20
16956;BMP180;8594;52.052;8.354;2023-03-01T14:35:35;101629.00;;;9.20
16956;BMP180;8594;52.052;8.354;2023-03-01T14:38:03;101613.00;;;9.10
16956;BMP180;8594;52.052;8.354;2023-03-01T14:40:34;101615.00;;;9.40
16956;BMP180;8594;52.052;8.354;2023-03-01T14:43:10;101621.00;;;9.20
16956;BMP180;8594;52.052;8.354;2023-03-01T14:45:37;101617.00;;;9.00
16956;BMP180;8594;52.052;8.354;2023-03-01T14:48:06;101602.00;;;8.80
16956;BMP180;8594;52.052;8.354;2023-03-01T14:50:41;101605.00;;;8.70
16956;BMP180;8594;52.052;8.354;2023-03-01T14:53:18;101594.00;;;8.80
16956;BMP180;8594;52.052;8.354;2023-03-01T14:55:50;101593.00;;;8.80
16956;BMP180;8594;52.052;8.354;2023-03-01T14:58:22;101588.00;;;8.80
16956;BMP180;8594;52.052;8.354;2023-03-01T15:00:53;101588.00;;;8.60
16956;BMP180;8594;52.052;8.354;2023-03-01T15:03:32;101595.00;;;8.40
16956;BMP180;8594;52.052;8.354;2023-03-01T15:06:04;101595.00;;;8.70